Terminal Aerodrome Forecast
Issued by NWS

Home | Current Version | Previous Version | Text Only | Print | Product List | Glossary On
Versions: 1 2 3 4 5 6 7 8 9 10 11 12 13 14 15 16 17 18 19 20 21 22 23 24 25 26 27 28
000
FTUS44 KOUN 031735
TAFCSM
TAF
KCSM 031735Z 0318/0418 23010G16KT P6SM OVC120
     FM040000 01012KT P6SM BKN009 OVC100 PROB30 0403/0407 3SM -RA BR
      OVC007
     FM040700 02018G28KT 4SM BR OVC007
      TEMPO 0407/0411 2SM -RA BR OVC004
     FM041100 02020G28KT 2SM -RAPL OVC006=

USA.gov is the U.S. government's official web portal to all federal, state and local government web resources and services.